Time;durP1;ratioP1;P1;durP2;ratioP2;P2;SDS_P1;SDS_P2;PMS_P1;PMS_P2;Temp;Humidity;BMP_temperature;BMP_pressure;BME280_temperature;BME280_humidity;BME280_pressure;Samples;Min_cycle;Max_cycle;Signal;HPM_P1;HPM_P2
2022/04/02 00:02:45;;;;;;;8.07;5.05;;;0.70;99.90;;;;;;7243391;32;20206;-59
2022/04/02 00:06:46;;;;;;;11.35;5.32;;;0.70;99.90;;;;;;7241271;32;20536;-60
2022/04/02 00:10:48;;;;;;;8.73;5.70;;;0.80;99.90;;;;;;7243763;32;20199;-61
2022/04/02 00:14:50;;;;;;;8.35;5.22;;;0.80;99.90;;;;;;7244883;32;20100;-61
2022/04/02 00:18:51;;;;;;;10.90;5.15;;;0.80;99.90;;;;;;7243522;32;20120;-60
2022/04/02 00:27:14;;;;;;;7.93;5.03;;;0.90;99.90;;;;;;7241426;32;20143;-61
2022/04/02 00:31:18;;;;;;;8.48;4.57;;;0.90;99.90;;;;;;7244104;32;20227;-60
2022/04/02 00:35:20;;;;;;;9.05;4.78;;;0.80;99.90;;;;;;7231642;32;20365;-61
2022/04/02 00:39:22;;;;;;;7.05;4.50;;;0.90;99.90;;;;;;7243937;32;20108;-60
2022/04/02 00:43:29;;;;;;;9.75;5.40;;;0.80;99.90;;;;;;7245120;32;20215;-60
2022/04/02 00:47:30;;;;;;;;;;;0.90;99.90;;;;;;7243643;32;20123;-60
2022/04/02 00:51:33;;;;;;;7.95;4.40;;;0.80;99.90;;;;;;7242187;32;20046;-59
2022/04/02 00:55:36;;;;;;;7.43;4.97;;;0.80;99.90;;;;;;7229738;32;20105;-59
2022/04/02 00:59:38;;;;;;;9.27;5.03;;;0.80;99.90;;;;;;7243552;32;20835;-60
2022/04/02 01:03:40;;;;;;;7.18;4.50;;;0.80;99.90;;;;;;7241746;32;20231;-60
2022/04/02 01:07:41;;;;;;;7.10;4.37;;;0.80;99.90;;;;;;7241025;32;20257;-60
2022/04/02 01:11:45;;;;;;;8.07;4.80;;;0.90;99.90;;;;;;7244397;32;20491;-59
2022/04/02 01:15:47;;;;;;;8.02;3.60;;;0.90;99.90;;;;;;7238978;32;20222;-62
2022/04/02 01:19:49;;;;;;;7.82;4.20;;;0.90;99.90;;;;;;7236354;32;20207;-60
2022/04/02 01:23:51;;;;;;;4.82;3.28;;;0.90;99.90;;;;;;7240951;32;20361;-60
2022/04/02 01:27:53;;;;;;;5.00;2.90;;;0.90;99.90;;;;;;7243563;32;20136;-59
2022/04/02 01:31:55;;;;;;;5.03;2.92;;;0.80;99.90;;;;;;7241790;32;20907;-59
2022/04/02 01:36:01;;;;;;;3.87;2.62;;;0.80;99.90;;;;;;7245438;32;20109;-60
2022/04/02 01:40:04;;;;;;;5.75;2.72;;;0.80;99.90;;;;;;7241585;32;20105;-60
2022/04/02 01:44:06;;;;;;;5.32;2.75;;;0.90;99.90;;;;;;7237458;32;20135;-60
2022/04/02 01:48:07;;;;;;;3.70;2.40;;;0.90;99.90;;;;;;7240318;32;20148;-59
2022/04/02 01:52:09;;;;;;;4.93;2.95;;;0.90;99.90;;;;;;7242005;32;20173;-60
2022/04/02 01:56:11;;;;;;;5.47;2.45;;;0.80;99.90;;;;;;7242457;32;20116;-60
2022/04/02 02:00:13;;;;;;;6.70;2.45;;;0.90;99.90;;;;;;7240362;32;20108;-60
2022/04/02 02:04:15;;;;;;;3.87;2.28;;;0.90;99.90;;;;;;7241951;32;20525;-60
2022/04/02 02:08:17;;;;;;;5.22;2.62;;;0.80;99.90;;;;;;7242769;32;20123;-61
2022/04/02 02:12:18;;;;;;;6.03;2.75;;;0.80;99.90;;;;;;7243256;32;20233;-60
2022/04/02 02:16:20;;;;;;;6.80;2.80;;;0.80;99.90;;;;;;7242520;32;20139;-60
2022/04/02 02:20:22;;;;;;;6.35;2.80;;;0.80;99.90;;;;;;7239737;32;20131;-59
2022/04/02 02:24:24;;;;;;;6.90;2.33;;;0.80;99.90;;;;;;7243128;32;20207;-60
2022/04/02 02:28:25;;;;;;;5.03;2.65;;;0.80;99.90;;;;;;7233864;32;20105;-61
2022/04/02 02:32:27;;;;;;;4.68;2.62;;;0.90;99.90;;;;;;7238339;32;20134;-59
2022/04/02 02:36:29;;;;;;;3.53;2.30;;;0.90;99.90;;;;;;7237564;32;20659;-60
2022/04/02 02:40:33;;;;;;;7.75;2.90;;;0.90;99.90;;;;;;7243824;32;20760;-59
2022/04/02 02:44:35;;;;;;;4.65;2.40;;;0.90;99.90;;;;;;7238652;32;20100;-59
2022/04/02 02:48:37;;;;;;;4.55;2.47;;;0.80;99.90;;;;;;7240243;32;20560;-62
2022/04/02 02:52:38;;;;;;;4.87;2.87;;;0.90;99.90;;;;;;7248082;32;20203;-60
2022/04/02 02:56:40;;;;;;;6.53;2.87;;;0.80;99.90;;;;;;7247050;32;20109;-59
2022/04/02 03:00:42;;;;;;;6.20;2.55;;;0.80;99.90;;;;;;7245791;32;20208;-61
2022/04/02 03:04:44;;;;;;;5.12;2.30;;;0.80;99.90;;;;;;7246047;32;20952;-59
2022/04/02 03:08:46;;;;;;;5.55;2.53;;;0.90;99.90;;;;;;7247086;32;20123;-60
2022/04/02 03:12:48;;;;;;;8.23;2.65;;;0.80;99.90;;;;;;7239656;32;20137;-60
2022/04/02 03:16:50;;;;;;;4.25;2.60;;;0.80;99.90;;;;;;7241195;32;20273;-60
2022/04/02 03:20:52;;;;;;;6.75;2.65;;;0.80;99.90;;;;;;7243040;32;20761;-59
2022/04/02 03:24:54;;;;;;;4.12;2.28;;;0.80;99.90;;;;;;7245641;32;20097;-60
2022/04/02 03:28:56;;;;;;;5.03;1.85;;;0.80;99.90;;;;;;7244768;32;20132;-60
2022/04/02 03:32:57;;;;;;;4.32;2.25;;;0.80;99.90;;;;;;7243356;32;20123;-59
2022/04/02 03:36:59;;;;;;;6.05;2.03;;;0.80;99.90;;;;;;7246217;32;20209;-57
2022/04/02 03:41:02;;;;;;;3.03;1.90;;;0.80;99.90;;;;;;7244462;32;20295;-58
2022/04/02 03:45:05;;;;;;;4.03;1.85;;;0.80;99.90;;;;;;7243746;32;20548;-58
2022/04/02 03:49:07;;;;;;;3.87;1.45;;;0.70;99.90;;;;;;7245660;32;20147;-59
2022/04/02 03:53:09;;;;;;;5.57;2.12;;;0.80;99.90;;;;;;7245597;32;20234;-58
2022/04/02 03:57:12;;;;;;;7.70;2.10;;;0.90;99.90;;;;;;7243309;32;20170;-59
2022/04/02 04:01:14;;;;;;;8.43;1.70;;;0.80;99.90;;;;;;7242526;32;20412;-58
2022/04/02 04:05:16;;;;;;;3.55;1.85;;;0.80;99.90;;;;;;7245323;32;20104;-59
2022/04/02 04:09:18;;;;;;;4.20;2.08;;;0.70;99.90;;;;;;7245210;32;20154;-58
2022/04/02 04:13:20;;;;;;;2.83;1.60;;;0.70;99.90;;;;;;7244410;32;20108;-60
2022/04/02 04:17:23;;;;;;;4.60;1.60;;;0.70;99.90;;;;;;7244143;32;20203;-59
2022/04/02 04:21:24;;;;;;;5.03;2.00;;;0.70;99.90;;;;;;7244830;32;20200;-58
2022/04/02 04:25:26;;;;;;;3.30;2.10;;;0.70;99.90;;;;;;7243816;32;20227;-59
2022/04/02 04:29:28;;;;;;;2.45;1.77;;;0.70;99.90;;;;;;7244163;32;20199;-59
2022/04/02 04:33:29;;;;;;;4.15;1.98;;;0.70;99.90;;;;;;7241516;32;20259;-58
2022/04/02 04:37:35;;;;;;;3.75;1.52;;;0.70;99.90;;;;;;7236872;32;20183;-58
2022/04/02 04:41:38;;;;;;;3.33;1.60;;;0.70;99.90;;;;;;7237373;32;20104;-59
2022/04/02 04:45:39;;;;;;;4.60;1.95;;;0.70;99.90;;;;;;7239334;32;20199;-58
2022/04/02 04:49:41;;;;;;;3.08;1.70;;;0.70;99.90;;;;;;7237345;32;20532;-58
2022/04/02 04:53:43;;;;;;;2.92;1.58;;;0.80;99.90;;;;;;7241732;32;20203;-58
2022/04/02 04:57:44;;;;;;;5.87;1.80;;;0.80;99.90;;;;;;7242066;32;20123;-58
2022/04/02 05:01:47;;;;;;;3.60;2.00;;;0.70;99.90;;;;;;7244049;32;20187;-58
2022/04/02 05:05:49;;;;;;;4.78;2.00;;;0.70;99.90;;;;;;7241911;32;20173;-58
2022/04/02 05:09:50;;;;;;;3.55;2.05;;;0.60;99.90;;;;;;7238166;32;20105;-58
2022/04/02 05:13:52;;;;;;;3.97;1.83;;;0.70;99.90;;;;;;7238692;32;20092;-58
2022/04/02 05:17:55;;;;;;;3.05;2.05;;;0.70;99.90;;;;;;7234325;32;20895;-58
2022/04/02 05:21:57;;;;;;;4.30;1.90;;;0.70;99.90;;;;;;7242897;32;20123;-59
2022/04/02 05:25:58;;;;;;;4.47;1.98;;;0.70;99.90;;;;;;7243878;32;20233;-58
2022/04/02 05:30:00;;;;;;;3.40;2.00;;;0.80;99.90;;;;;;7240298;32;20100;-59
2022/04/02 05:34:02;;;;;;;3.58;1.80;;;0.60;99.90;;;;;;7242091;32;20203;-59
2022/04/02 05:38:04;;;;;;;4.60;2.20;;;0.70;99.90;;;;;;7241969;32;20192;-58
2022/04/02 05:42:06;;;;;;;3.75;2.05;;;0.70;99.90;;;;;;7240675;32;20770;-58
2022/04/02 05:46:07;;;;;;;4.18;2.10;;;0.80;99.90;;;;;;7241311;32;20139;-58
2022/04/02 05:50:13;;;;;;;4.78;1.95;;;0.80;99.90;;;;;;7237672;32;21439;-59
2022/04/02 05:54:35;;;;;;;4.05;1.98;;;0.80;99.90;;;;;;7230969;32;20136;-58
2022/04/02 05:58:37;;;;;;;5.03;1.75;;;0.80;99.90;;;;;;7237692;32;20128;-59
2022/04/02 06:02:40;;;;;;;3.58;2.15;;;0.90;99.90;;;;;;7244470;32;20213;-59
2022/04/02 06:06:41;;;;;;;4.18;2.12;;;0.90;99.90;;;;;;7245510;32;20105;-60
2022/04/02 06:10:44;;;;;;;5.47;1.95;;;0.90;99.90;;;;;;7243750;32;20101;-59
2022/04/02 06:14:46;;;;;;;4.68;2.45;;;0.90;99.90;;;;;;7242349;32;20131;-58
2022/04/02 06:18:48;;;;;;;3.08;1.92;;;1.00;99.90;;;;;;7236901;32;20118;-58
2022/04/02 06:22:49;;;;;;;7.80;3.37;;;1.00;99.90;;;;;;7245923;32;20290;-58
2022/04/02 06:26:51;;;;;;;4.95;2.20;;;1.00;99.90;;;;;;7246549;32;20496;-60
2022/04/02 06:30:53;;;;;;;4.07;2.40;;;1.10;99.90;;;;;;7244844;32;20196;-59
2022/04/02 06:34:55;;;;;;;3.92;2.00;;;1.10;99.90;;;;;;7247020;32;20488;-60
2022/04/02 06:38:57;;;;;;;4.32;2.50;;;1.00;99.90;;;;;;7241497;32;20211;-59
2022/04/02 06:42:58;;;;;;;4.03;2.30;;;1.10;99.90;;;;;;7243242;32;20187;-60
2022/04/02 06:47:00;;;;;;;5.68;2.12;;;1.10;99.90;;;;;;7242009;32;20163;-59
2022/04/02 06:51:02;;;;;;;5.10;2.22;;;1.10;99.90;;;;;;7248494;32;20118;-60
2022/04/02 06:55:05;;;;;;;4.03;2.42;;;1.20;99.90;;;;;;7237890;32;20175;-61
2022/04/02 06:59:06;;;;;;;4.25;2.70;;;1.40;99.90;;;;;;7241116;32;20148;-60
2022/04/02 07:03:09;;;;;;;7.82;2.22;;;1.30;99.90;;;;;;7240071;32;20220;-60
2022/04/02 07:07:10;;;;;;;4.05;2.05;;;1.20;99.90;;;;;;7247358;32;20220;-60
2022/04/02 07:11:12;;;;;;;4.97;2.40;;;1.30;99.90;;;;;;7245400;32;20489;-60
2022/04/02 07:15:14;;;;;;;4.30;2.08;;;1.40;99.90;;;;;;7245930;32;20104;-61
2022/04/02 07:19:20;;;;;;;5.78;2.60;;;1.50;99.90;;;;;;7242647;32;20104;-58
2022/04/02 07:23:22;;;;;;;4.28;2.00;;;1.50;99.90;;;;;;7239336;32;20123;-59
2022/04/02 07:27:27;;;;;;;4.68;2.10;;;1.60;99.90;;;;;;7244183;32;20559;-59
2022/04/02 07:31:29;;;;;;;5.50;1.90;;;1.70;99.90;;;;;;7243656;32;20250;-59
2022/04/02 07:35:41;;;;;;;2.92;2.00;;;1.80;99.90;;;;;;7244354;32;20515;-59
2022/04/02 07:40:05;;;;;;;3.95;2.17;;;1.80;99.90;;;;;;7244932;32;20507;-59
2022/04/02 07:44:21;;;;;;;4.87;2.37;;;1.80;99.90;;;;;;7243609;32;20131;-59
2022/04/02 07:48:24;;;;;;;6.95;2.37;;;1.90;99.90;;;;;;7239813;32;20679;-55
2022/04/02 07:52:27;;;;;;;7.10;2.03;;;2.00;99.90;;;;;;7233873;32;20433;-59
2022/04/02 07:56:37;;;;;;;4.62;2.25;;;2.00;99.90;;;;;;7241017;32;20128;-60
2022/04/02 08:00:39;;;;;;;5.50;2.03;;;2.10;99.90;;;;;;7242559;32;20729;-59
2022/04/02 08:04:41;;;;;;;5.18;2.40;;;2.00;99.90;;;;;;7245390;32;20162;-59
2022/04/02 08:08:44;;;;;;;5.05;2.30;;;2.00;99.90;;;;;;7242612;32;20730;-59
2022/04/02 08:12:47;;;;;;;3.95;2.28;;;2.00;99.90;;;;;;7232666;32;20215;-59
2022/04/02 08:16:49;;;;;;;4.43;2.53;;;2.00;99.90;;;;;;7244210;32;20108;-60
2022/04/02 08:20:51;;;;;;;3.65;2.10;;;2.20;99.90;;;;;;7242874;32;20763;-60
2022/04/02 08:24:54;;;;;;;5.68;2.80;;;2.10;99.90;;;;;;7245451;32;20124;-59
2022/04/02 08:29:24;;;;;;;6.00;2.40;;;2.20;99.90;;;;;;7242661;32;20104;-60
2022/04/02 08:33:47;;;;;;;4.07;2.05;;;2.30;99.90;;;;;;7241015;32;20418;-59
2022/04/02 08:38:09;;;;;;;4.47;2.40;;;2.30;99.90;;;;;;7238176;32;21225;-59
2022/04/02 08:42:40;;;;;;;4.30;2.05;;;2.60;99.90;;;;;;7238261;32;20311;-59
2022/04/02 08:47:06;;;;;;;4.53;2.37;;;2.70;99.90;;;;;;7241116;32;20096;-61
2022/04/02 08:51:21;;;;;;;5.70;2.33;;;2.50;99.90;;;;;;7243113;32;20245;-59
2022/04/02 08:55:35;;;;;;;4.70;2.85;;;2.60;99.90;;;;;;7241780;32;20100;-59
2022/04/02 08:59:39;;;;;;;5.50;2.85;;;2.70;99.90;;;;;;7243134;32;20108;-59
2022/04/02 09:04:24;;;;;;;7.37;2.78;;;2.70;99.90;;;;;;7241178;32;20101;-60
2022/04/02 09:09:04;;;;;;;5.20;2.58;;;2.90;99.90;;;;;;7220568;32;20112;-59
2022/04/02 09:13:45;;;;;;;4.95;3.00;;;3.00;99.90;;;;;;7236730;32;20103;-59
2022/04/02 09:18:16;;;;;;;4.07;2.30;;;3.10;99.90;;;;;;7241382;32;20159;-60
2022/04/02 09:22:36;;;;;;;5.37;2.55;;;3.00;99.90;;;;;;7239546;32;20242;-60
2022/04/02 09:26:40;;;;;;;7.07;2.22;;;2.90;99.90;;;;;;7228155;32;20203;-60
2022/04/02 09:31:00;;;;;;;3.53;2.00;;;3.10;99.90;;;;;;7243294;32;20230;-60
2022/04/02 09:35:23;;;;;;;6.47;2.60;;;3.10;99.90;;;;;;7243102;32;20192;-61
2022/04/02 09:39:40;;;;;;;6.03;2.25;;;3.20;99.90;;;;;;7239238;32;20150;-59
2022/04/02 09:44:18;;;;;;;7.25;2.85;;;3.40;99.90;;;;;;7238494;32;20100;-60
2022/04/02 09:48:26;;;;;;;6.03;2.20;;;3.70;99.90;;;;;;7242563;32;20536;-60
2022/04/02 09:52:29;;;;;;;5.05;2.22;;;3.80;99.90;;;;;;7239787;32;20112;-60
2022/04/02 09:56:39;;;;;;;5.05;2.65;;;3.90;99.90;;;;;;7241451;32;20123;-60
2022/04/02 10:01:08;;;;;;;5.20;2.40;;;3.90;99.90;;;;;;7241268;32;20195;-60
2022/04/02 10:05:14;;;;;;;4.87;2.25;;;4.00;99.90;;;;;;7243048;32;20384;-60
2022/04/02 10:09:20;;;;;;;4.25;2.30;;;4.30;99.90;;;;;;7240444;32;20215;-62
2022/04/02 10:13:23;;;;;;;3.65;2.25;;;4.70;99.90;;;;;;7235774;32;20181;-60
2022/04/02 10:17:28;;;;;;;5.37;2.45;;;4.60;99.90;;;;;;7237436;32;20104;-60
2022/04/02 10:21:35;;;;;;;3.33;2.45;;;4.50;99.90;;;;;;7236891;32;20222;-62
2022/04/02 10:25:50;;;;;;;4.60;2.40;;;4.80;99.90;;;;;;7237588;32;20134;-61
2022/04/02 10:30:03;;;;;;;5.22;2.28;;;5.00;99.90;;;;;;7232916;32;20695;-60
2022/04/02 10:34:10;;;;;;;5.70;2.60;;;5.00;99.90;;;;;;7240330;32;20175;-60
2022/04/02 10:38:51;;;;;;;5.43;2.95;;;4.80;99.90;;;;;;7233497;32;20144;-60
2022/04/02 10:43:06;;;;;;;6.45;3.45;;;4.50;99.90;;;;;;7238456;32;20658;-60
2022/04/02 10:47:11;;;;;;;7.22;3.62;;;4.10;99.90;;;;;;7235448;32;20552;-60
2022/04/02 10:51:13;;;;;;;7.93;5.00;;;3.90;99.90;;;;;;7238150;32;20147;-59
2022/04/02 10:55:17;;;;;;;5.05;2.83;;;3.80;99.90;;;;;;7239108;32;20101;-60
2022/04/02 10:59:19;;;;;;;7.35;3.40;;;3.70;99.90;;;;;;7239024;32;20213;-59
2022/04/02 11:03:41;;;;;;;5.25;3.00;;;3.70;99.90;;;;;;7237730;32;20258;-60
2022/04/02 11:07:45;;;;;;;5.10;3.12;;;3.60;99.90;;;;;;7237847;32;20331;-59
2022/04/02 11:11:47;;;;;;;4.47;3.20;;;3.60;99.90;;;;;;7240586;32;20531;-60
2022/04/02 11:15:52;;;;;;;4.35;3.03;;;3.90;99.90;;;;;;7243241;32;20312;-60
2022/04/02 11:20:10;;;;;;;3.67;2.72;;;4.10;99.90;;;;;;7242735;32;20203;-60
2022/04/02 11:24:25;;;;;;;5.70;3.55;;;4.40;99.90;;;;;;7243581;32;20361;-60
2022/04/02 11:28:41;;;;;;;6.62;3.47;;;4.40;99.90;;;;;;7238667;32;20226;-62
2022/04/02 11:32:45;;;;;;;4.82;3.40;;;4.30;99.90;;;;;;7241107;32;20183;-60
2022/04/02 11:36:48;;;;;;;5.70;3.50;;;3.80;99.90;;;;;;7240348;32;20143;-59
2022/04/02 11:41:11;;;;;;;6.78;3.20;;;3.60;99.90;;;;;;7240709;32;20228;-60
2022/04/02 11:45:19;;;;;;;6.45;3.30;;;3.70;99.90;;;;;;7235756;32;20127;-59
2022/04/02 11:49:28;;;;;;;4.47;2.62;;;3.60;99.90;;;;;;7232179;32;20187;-58
2022/04/02 11:53:36;;;;;;;4.80;3.00;;;3.50;99.90;;;;;;7240068;32;20160;-59
2022/04/02 11:58:04;;;;;;;6.20;3.37;;;3.30;99.90;;;;;;7238760;32;20104;-60
2022/04/02 12:02:06;;;;;;;5.18;3.28;;;3.50;99.90;;;;;;7239551;32;20195;-59
2022/04/02 12:06:11;;;;;;;8.38;3.87;;;3.50;99.90;;;;;;7240507;32;20717;-60
2022/04/02 12:10:27;;;;;;;4.07;2.80;;;3.80;99.90;;;;;;7239224;32;20258;-58
2022/04/02 12:14:32;;;;;;;7.18;2.92;;;3.90;99.90;;;;;;7238480;32;20677;-60
2022/04/02 12:18:57;;;;;;;5.95;3.00;;;3.90;99.90;;;;;;7235679;32;21055;-59
2022/04/02 12:23:15;;;;;;;4.60;3.10;;;4.00;99.90;;;;;;7238825;32;20211;-60
2022/04/02 12:27:25;;;;;;;5.07;2.92;;;4.00;99.90;;;;;;7236556;32;20207;-57
2022/04/02 12:31:30;;;;;;;5.65;3.50;;;3.80;99.90;;;;;;7237184;32;20258;-59
2022/04/02 12:35:33;;;;;;;5.68;3.12;;;3.80;99.90;;;;;;7236802;32;20788;-60
2022/04/02 12:39:36;;;;;;;7.55;3.53;;;3.90;99.90;;;;;;7234623;32;20200;-59
2022/04/02 12:43:37;;;;;;;5.87;3.45;;;3.90;99.90;;;;;;7239634;32;20118;-59
2022/04/02 12:47:40;;;;;;;4.35;2.78;;;4.30;99.90;;;;;;7236232;32;20105;-59
2022/04/02 12:51:41;;;;;;;4.07;3.05;;;4.60;99.90;;;;;;7238812;32;20824;-60
2022/04/02 12:55:46;;;;;;;5.40;2.92;;;4.40;99.90;;;;;;7238609;32;20127;-60
2022/04/02 12:59:55;;;;;;;5.18;3.20;;;4.60;99.90;;;;;;7237950;32;20127;-61
2022/04/02 13:04:01;;;;;;;5.45;3.10;;;4.80;99.90;;;;;;7236808;32;20126;-60
2022/04/02 13:08:04;;;;;;;4.80;3.20;;;4.60;99.90;;;;;;7238949;32;20305;-61
2022/04/02 13:12:09;;;;;;;6.45;3.08;;;4.40;99.90;;;;;;7236004;32;20167;-61
2022/04/02 13:16:15;;;;;;;6.47;3.33;;;4.50;99.90;;;;;;7235531;32;20461;-60
2022/04/02 13:20:30;;;;;;;6.28;3.00;;;4.20;99.90;;;;;;7241581;32;20350;-61
2022/04/02 13:24:41;;;;;;;6.25;3.40;;;4.10;99.90;;;;;;7236682;32;20646;-59
2022/04/02 13:28:57;;;;;;;4.45;2.92;;;4.10;99.90;;;;;;7233333;32;20717;-59
2022/04/02 13:33:20;;;;;;;5.27;3.00;;;4.20;99.90;;;;;;7232921;32;20218;-57
2022/04/02 13:37:32;;;;;;;4.00;2.55;;;4.20;99.90;;;;;;7238280;32;20913;-60
2022/04/02 13:41:36;;;;;;;5.03;2.70;;;4.70;99.90;;;;;;7237477;32;20133;-60
2022/04/02 13:45:42;;;;;;;5.68;3.03;;;5.10;99.90;;;;;;7236769;32;20093;-60
2022/04/02 13:49:57;;;;;;;4.40;2.80;;;5.30;99.90;;;;;;7237545;32;20214;-59
2022/04/02 13:54:04;;;;;;;5.93;2.45;;;5.70;99.90;;;;;;7237710;32;20116;-60
2022/04/02 13:58:09;;;;;;;7.85;2.97;;;6.10;99.90;;;;;;7236456;32;20210;-60
2022/04/02 14:02:21;;;;;;;4.85;3.35;;;5.70;99.90;;;;;;7233492;32;20619;-60
2022/04/02 14:06:24;;;;;;;5.47;2.83;;;5.60;99.90;;;;;;7234617;32;21121;-60
2022/04/02 14:10:43;;;;;;;5.47;2.92;;;5.50;99.90;;;;;;7236535;32;20187;-59
2022/04/02 14:15:06;;;;;;;5.68;3.53;;;5.60;99.90;;;;;;7230687;32;20100;-58
2022/04/02 14:19:10;;;;;;;3.95;2.72;;;5.90;99.90;;;;;;7230949;32;20211;-60
2022/04/02 14:23:21;;;;;;;4.78;2.78;;;5.70;99.90;;;;;;7236116;32;20127;-58
2022/04/02 14:27:40;;;;;;;4.35;2.83;;;5.50;99.90;;;;;;7237390;32;20195;-60
2022/04/02 14:31:51;;;;;;;3.50;2.65;;;5.50;99.90;;;;;;7235848;32;20208;-60
2022/04/02 14:36:23;;;;;;;4.87;2.35;;;5.50;99.90;;;;;;7233914;32;20158;-60
2022/04/02 14:40:49;;;;;;;3.80;2.83;;;5.50;99.90;;;;;;7234343;32;20162;-60
2022/04/02 14:45:20;;;;;;;6.25;2.20;;;5.80;99.90;;;;;;7237447;32;20266;-59
2022/04/02 14:49:43;;;;;;;3.80;2.00;;;5.80;99.90;;;;;;7237777;32;20772;-59
2022/04/02 14:54:04;;;;;;;4.72;2.42;;;5.80;99.90;;;;;;7237709;32;20241;-60
2022/04/02 14:58:25;;;;;;;3.08;2.17;;;5.70;99.90;;;;;;7239996;32;20131;-59
2022/04/02 15:02:48;;;;;;;4.70;2.20;;;5.70;99.90;;;;;;7243162;32;20100;-58
2022/04/02 15:07:17;;;;;;;4.25;2.40;;;5.80;99.90;;;;;;7245014;32;20113;-59
2022/04/02 15:11:20;;;;;;;4.20;2.40;;;5.80;99.90;;;;;;7243849;32;20954;-60
2022/04/02 15:15:44;;;;;;;3.67;2.35;;;5.80;99.90;;;;;;7241363;32;20733;-59
2022/04/02 15:19:49;;;;;;;4.62;2.22;;;5.80;99.90;;;;;;7244590;32;20269;-60
2022/04/02 15:24:12;;;;;;;3.33;1.65;;;5.70;99.90;;;;;;7244323;32;20238;-60
2022/04/02 15:28:24;;;;;;;2.67;1.62;;;5.60;99.90;;;;;;7243008;32;20128;-59
2022/04/02 15:32:40;;;;;;;2.78;1.50;;;5.50;99.90;;;;;;7243618;32;20138;-58
2022/04/02 15:37:00;;;;;;;4.32;2.28;;;5.40;99.90;;;;;;7244586;32;20093;-59
2022/04/02 15:41:05;;;;;;;3.00;1.70;;;5.40;99.90;;;;;;7243403;32;20243;-60
2022/04/02 15:45:07;;;;;;;1.92;1.08;;;5.50;99.90;;;;;;7243279;32;20123;-59
2022/04/02 15:49:10;;;;;;;3.47;1.40;;;5.60;99.00;;;;;;7243115;32;20123;-59
2022/04/02 15:53:12;;;;;;;2.60;1.35;;;5.60;99.90;;;;;;7243419;32;20108;-59
2022/04/02 15:57:16;;;;;;;4.35;1.50;;;5.70;99.70;;;;;;7244126;32;20153;-59
2022/04/02 16:01:38;;;;;;;2.58;1.42;;;5.70;98.80;;;;;;7243595;32;20146;-59
2022/04/02 16:05:40;;;;;;;1.83;1.25;;;5.70;99.90;;;;;;7242426;32;20127;-58
2022/04/02 16:10:08;;;;;;;4.22;1.30;;;5.80;98.90;;;;;;7239002;32;20215;-59
2022/04/02 16:14:13;;;;;;;2.90;1.30;;;5.70;99.90;;;;;;7238676;32;20697;-60
2022/04/02 16:18:19;;;;;;;2.80;1.40;;;5.60;97.10;;;;;;7238651;32;20122;-60
2022/04/02 16:22:24;;;;;;;3.60;1.37;;;5.50;97.70;;;;;;7242797;32;20206;-61
2022/04/02 16:26:26;;;;;;;2.78;1.33;;;5.40;97.50;;;;;;7243795;32;20235;-60
2022/04/02 16:30:29;;;;;;;3.60;1.35;;;5.30;99.90;;;;;;7238163;32;20522;-59
2022/04/02 16:34:33;;;;;;;2.42;1.50;;;5.10;99.90;;;;;;7242473;32;20227;-59
2022/04/02 16:38:50;;;;;;;1.98;1.23;;;5.00;99.90;;;;;;7239366;32;20255;-59
2022/04/02 16:43:04;;;;;;;2.35;1.10;;;5.00;99.90;;;;;;7239245;32;20279;-59
2022/04/02 16:47:14;;;;;;;1.80;1.20;;;5.00;99.90;;;;;;7239324;32;20243;-59
2022/04/02 16:51:17;;;;;;;1.75;1.00;;;5.00;99.90;;;;;;7239865;32;20488;-59
2022/04/02 16:55:18;;;;;;;2.08;1.37;;;5.00;99.90;;;;;;7239781;32;20142;-60
2022/04/02 16:59:20;;;;;;;2.95;1.20;;;5.10;99.90;;;;;;7238580;32;20188;-61
2022/04/02 17:03:25;;;;;;;3.83;1.48;;;5.10;99.90;;;;;;7240682;32;20096;-60
2022/04/02 17:07:27;;;;;;;2.85;1.40;;;5.10;99.90;;;;;;7240843;32;20127;-59
2022/04/02 17:11:40;;;;;;;2.85;1.40;;;5.20;99.90;;;;;;7238908;32;20277;-61
2022/04/02 17:15:54;;;;;;;4.18;1.60;;;5.10;99.90;;;;;;7236924;32;20101;-61
2022/04/02 17:19:58;;;;;;;1.98;1.30;;;5.10;99.90;;;;;;7239420;32;20112;-60
2022/04/02 17:24:12;;;;;;;3.72;1.37;;;4.90;99.90;;;;;;7239454;32;20127;-62
2022/04/02 17:28:14;;;;;;;9.82;1.65;;;4.90;99.90;;;;;;7239634;32;20796;-60
2022/04/02 17:32:20;;;;;;;3.37;1.70;;;4.70;99.90;;;;;;7233610;32;20219;-59
2022/04/02 17:36:26;;;;;;;2.55;1.02;;;4.70;99.90;;;;;;7239895;32;20488;-62
2022/04/02 17:40:33;;;;;;;3.60;1.67;;;4.60;99.90;;;;;;7238339;32;20100;-61
2022/04/02 17:44:34;;;;;;;1.62;1.20;;;4.60;99.90;;;;;;7238022;32;20243;-61
2022/04/02 17:48:36;;;;;;;2.30;1.40;;;4.40;99.90;;;;;;7236035;32;20203;-60
2022/04/02 17:52:49;;;;;;;4.57;2.15;;;4.30;99.90;;;;;;7236405;32;20231;-60
2022/04/02 17:56:51;;;;;;;4.97;1.95;;;4.20;99.90;;;;;;7237318;32;20179;-60
2022/04/02 18:00:57;;;;;;;3.92;1.50;;;4.10;99.90;;;;;;7237815;32;20566;-60
2022/04/02 18:05:00;;;;;;;2.43;1.60;;;4.00;99.90;;;;;;7238000;32;20105;-62
2022/04/02 18:09:04;;;;;;;3.58;1.90;;;3.90;99.90;;;;;;7238911;32;20506;-60
2022/04/02 18:13:06;;;;;;;4.05;1.52;;;3.90;99.90;;;;;;7237202;32;20097;-62
2022/04/02 18:17:09;;;;;;;18.48;2.00;;;3.90;99.90;;;;;;7230584;32;20238;-60
2022/04/02 18:21:13;;;;;;;3.67;1.90;;;3.90;99.90;;;;;;7235988;32;20101;-60
2022/04/02 18:25:16;;;;;;;3.90;1.67;;;3.90;99.90;;;;;;7230973;32;22217;-62
2022/04/02 18:29:17;;;;;;;2.72;1.50;;;4.00;99.90;;;;;;7236753;32;20927;-62
2022/04/02 18:33:19;;;;;;;2.95;2.00;;;4.00;99.90;;;;;;7232782;32;20845;-62
2022/04/02 18:37:21;;;;;;;3.22;2.03;;;4.00;99.90;;;;;;7233193;32;20222;-62
2022/04/02 18:41:24;;;;;;;3.28;2.15;;;3.90;99.90;;;;;;7223660;32;20195;-62
2022/04/02 18:45:26;;;;;;;3.00;1.90;;;3.80;99.90;;;;;;7233411;32;20754;-60
2022/04/02 18:49:29;;;;;;;5.22;1.80;;;3.90;99.90;;;;;;7237698;32;20150;-61
2022/04/02 18:53:31;;;;;;;3.00;2.28;;;3.70;99.90;;;;;;7238990;32;20136;-63
2022/04/02 18:57:32;;;;;;;4.47;1.92;;;3.70;99.90;;;;;;7237887;32;20218;-62
2022/04/02 19:01:35;;;;;;;3.83;1.87;;;3.50;99.90;;;;;;7236627;32;20839;-63
2022/04/02 19:05:37;;;;;;;2.58;1.80;;;3.50;99.90;;;;;;7237645;32;20219;-64
2022/04/02 19:09:42;;;;;;;4.87;2.35;;;3.30;99.90;;;;;;7238176;32;20115;-64
2022/04/02 19:13:45;;;;;;;3.67;2.10;;;3.20;99.90;;;;;;7238358;32;20543;-63
2022/04/02 19:17:47;;;;;;;3.62;2.22;;;3.20;99.90;;;;;;7234887;32;20104;-63
2022/04/02 19:21:48;;;;;;;4.93;2.40;;;3.10;99.90;;;;;;7236513;32;20246;-62
2022/04/02 19:25:50;;;;;;;4.03;2.15;;;3.00;99.90;;;;;;7237561;32;20191;-63
2022/04/02 19:29:52;;;;;;;8.35;2.62;;;3.00;99.90;;;;;;7242927;32;20107;-61
2022/04/02 19:33:54;;;;;;;4.75;1.60;;;2.90;99.90;;;;;;7238593;32;20128;-62
2022/04/02 19:37:57;;;;;;;2.53;1.58;;;2.80;99.90;;;;;;7241657;32;20200;-62
2022/04/02 19:41:58;;;;;;;5.53;2.65;;;2.80;99.90;;;;;;7241589;32;20115;-65
2022/04/02 19:46:00;;;;;;;6.30;4.30;;;2.60;99.90;;;;;;7241138;32;20227;-64
2022/04/02 19:50:04;;;;;;;9.07;5.97;;;2.50;99.90;;;;;;7242737;32;20116;-63
2022/04/02 19:54:06;;;;;;;3.95;2.30;;;2.30;99.90;;;;;;7243292;32;20469;-62
2022/04/02 19:58:08;;;;;;;4.40;2.72;;;2.20;99.90;;;;;;7242264;32;20115;-63
2022/04/02 20:02:10;;;;;;;3.45;2.60;;;2.10;99.90;;;;;;7240525;32;20191;-65
2022/04/02 20:06:11;;;;;;;3.78;2.47;;;2.00;99.90;;;;;;7240932;32;20226;-62
2022/04/02 20:10:14;;;;;;;3.05;2.05;;;2.00;99.90;;;;;;7242005;32;20214;-62
2022/04/02 20:14:15;;;;;;;4.12;2.17;;;1.90;99.90;;;;;;7242731;32;20223;-65
2022/04/02 20:18:17;;;;;;;5.25;2.95;;;1.80;99.90;;;;;;7240778;32;20203;-63
2022/04/02 20:22:20;;;;;;;5.35;3.17;;;1.80;99.90;;;;;;7243222;32;20724;-63
2022/04/02 20:26:21;;;;;;;7.05;2.90;;;1.80;99.90;;;;;;7242110;32;20165;-62
2022/04/02 20:30:24;;;;;;;4.60;2.72;;;1.80;99.90;;;;;;7240394;32;20278;-63
2022/04/02 20:34:25;;;;;;;4.03;2.62;;;1.80;99.90;;;;;;7236047;32;20584;-61
2022/04/02 20:38:27;;;;;;;5.05;2.62;;;1.80;99.90;;;;;;7240652;32;20092;-60
2022/04/02 20:42:29;;;;;;;4.47;2.40;;;1.80;99.90;;;;;;7243670;32;20100;-60
2022/04/02 20:46:30;;;;;;;6.12;3.10;;;1.70;99.90;;;;;;7243831;32;20097;-63
2022/04/02 20:50:36;;;;;;;5.72;2.97;;;1.60;99.90;;;;;;7242947;32;20165;-61
2022/04/02 20:54:38;;;;;;;14.35;6.47;;;1.60;99.90;;;;;;7241409;32;20211;-61
2022/04/02 20:58:40;;;;;;;35.20;17.12;;;1.60;99.90;;;;;;7241208;32;20123;-61
2022/04/02 21:02:42;;;;;;;12.52;6.35;;;1.50;99.90;;;;;;7242744;32;20139;-61
2022/04/02 21:06:44;;;;;;;9.35;4.80;;;1.50;99.90;;;;;;7240263;32;20213;-61
2022/04/02 21:10:45;;;;;;;10.15;4.40;;;1.60;99.90;;;;;;7243700;32;20125;-58
2022/04/02 21:14:47;;;;;;;6.53;3.37;;;1.50;99.90;;;;;;7241853;32;20583;-59
2022/04/02 21:18:48;;;;;;;4.60;2.70;;;1.50;99.90;;;;;;7241229;32;20174;-59
2022/04/02 21:22:50;;;;;;;4.60;2.22;;;1.40;99.90;;;;;;7243994;32;20108;-60
2022/04/02 21:26:54;;;;;;;4.97;2.12;;;1.40;99.90;;;;;;7238275;32;20582;-60
2022/04/02 21:30:55;;;;;;;7.25;4.57;;;1.30;99.90;;;;;;7243201;32;20260;-59
2022/04/02 21:34:57;;;;;;;4.22;3.17;;;1.30;99.90;;;;;;7248614;32;20108;-60
2022/04/02 21:38:59;;;;;;;5.65;3.08;;;1.20;99.90;;;;;;7243241;32;20104;-61
2022/04/02 21:43:00;;;;;;;5.55;2.80;;;1.20;99.90;;;;;;7245819;32;20108;-58
2022/04/02 21:47:02;;;;;;;4.50;2.92;;;1.20;99.90;;;;;;7240065;32;20113;-59